Latest Coastal Weather Observations for Green Cape

IDN60701

Issued at 6:31 am EST Saturday 7 May 2016 (issued every 10 minutes, with the page automatically refreshed every 10 minutes)

About coastal observations | Map of coastal stations | Coastal observations for NSW | Marine services | Other Formats
Station Details ID: 069137 Name: GREEN CAPE AWS Lat: -37.26 Lon: 150.05 Height: 19.4 m
Data from the previous 72 hours. | See also: Recent months at Green Cape
Date/Time
EST
Temp

°C
Wind Pressure Rain
since 9am
mm
Weather Cloud Vis
km
Sea
Height
m
Swell
Dir
 
Speed
knots
Gust
knots
hPa Trend Height
m
Period
s
Dir
07/06:30am 13.6 W 1 5 1018.7 - 0.0 - - - - - - -
07/06:00am 13.7 N 1 2 1018.6 - 0.0 - - - - - - -
07/05:30am 14.2 NNW 3 3 1018.7 - 0.0 - - - - - - -
07/05:00am 13.5 NW 3 4 1018.4 - 0.0 - - - - - - -
07/04:30am 14.0 N 3 4 1018.1 - 0.0 - - - - - - -
07/04:00am 13.3 WNW 2 4 1017.9 - 0.0 - - - - - - -
07/03:30am 13.6 WNW 4 4 1017.8 - 0.0 - - - - - - -
07/03:00am 13.5 WNW 3 4 1017.9 - 0.0 - - - - - - -
07/02:30am 14.2 WNW 2 3 1018.0 - 0.0 - - - - - - -
07/02:00am 14.6 CALM 0 0 1018.0 - 0.0 - - - - - - -
07/01:30am 14.6 W 3 5 1018.3 - 0.0 - - - - - - -
07/01:00am 15.2 NNE 2 2 1018.3 - 0.0 - - - - - - -
07/12:30am 15.7 N 3 6 1018.6 - 0.0 - - - - - - -
07/12:00am 16.0 NNW 6 7 1018.9 - 0.0 - - - - - - -
 
Date/Time
EST
Temp

°C
Wind Pressure Rain
since 9am
mm
Weather Cloud Vis
km
Sea
Height
m
Swell
Dir
 
Speed
knots
Gust
knots
hPa Trend Height
m
Period
s
Dir
06/11:30pm 16.3 N 4 5 1018.9 - 0.0 - - - - - - -
06/11:00pm 15.7 N 3 4 1018.9 - 0.0 - - - - - - -
06/10:30pm 16.5 NW 1 3 1018.9 - 0.0 - - - - - - -
06/10:00pm 15.5 N 1 2 1018.9 - 0.0 - - - - - - -
06/09:30pm 16.9 N 4 4 1018.9 - 0.0 - - - - - - -
06/09:00pm 16.7 N 4 5 1018.7 - 0.0 - - - - - - -
06/08:30pm 16.5 N 6 7 1018.4 - 0.0 - - - - - - -
06/08:00pm 16.7 N 5 7 1018.2 - 0.0 - - - - - - -
06/07:30pm 17.0 N 8 11 1018.0 - 0.0 - - - - - - -
06/07:00pm 17.0 N 9 12 1018.0 - 0.0 - - - - - - -
06/06:30pm 16.8 N 8 10 1017.8 - 0.0 - - - - - - -
06/06:00pm 16.9 N 8 10 1017.5 - 0.0 - - - - - - -
06/05:30pm 17.6 N 8 9 1017.1 - 0.0 - - - - - - -
06/05:00pm 17.9 N 9 9 1016.8 - 0.0 - - - - - - -
06/04:30pm 18.6 N 9 9 1016.8 - 0.0 - - - - - - -
06/04:00pm 19.2 N 8 9 1016.6 - 0.0 - - - - - - -
06/03:30pm 19.4 NNE 8 9 1016.5 - 0.0 - - - - - - -
06/03:00pm 20.2 N 8 9 1016.4 - 0.0 - - - - - - -
06/02:30pm 20.1 N 8 9 1016.3 - 0.0 - - - - - - -
06/02:00pm 20.2 N 7 8 1016.4 - 0.0 - - - - - - -
06/01:30pm 20.9 N 8 10 1016.4 - 0.0 - - - - - - -
06/01:00pm 20.4 N 9 10 1016.6 - 0.0 - - - - - - -
06/12:30pm 20.3 N 9 10 1016.7 - 0.0 - - - - - - -
06/12:00pm 20.6 N 8 9 1017.1 - 0.0 - - - - - - -
06/11:30am 20.5 N 7 8 1017.5 - 0.0 - - - - - - -
06/11:00am 20.2 N 8 9 1017.8 - 0.0 - - - - - - -
06/10:30am 20.2 NNE 6 7 1018.0 - 0.0 - - - - - - -
06/10:00am 20.4 N 1 3 1018.4 - 0.0 - - - - - - -
06/09:30am 19.3 NW 4 7 1018.4 - 0.0 - - - - - - -
06/09:00am 18.3 NW 3 8 1018.5 - 0.0 - - - - - - -
06/08:30am 17.9 WNW 5 9 1018.1 - 0.0 - - - - - - -
06/08:00am 17.0 NW 2 5 1017.8 - 0.0 - - - - - - -
06/07:30am 15.7 WNW 3 5 1017.6 - 0.0 - - - - - - -
06/07:00am 15.2 NW 4 6 1017.0 - 0.0 - - - - - - -
06/06:30am 15.8 WNW 8 10 1016.5 - 0.0 - - - - - - -
06/06:00am 15.4 W 8 10 1016.2 - 0.0 - - - - - - -
06/05:30am 15.6 W 9 11 1016.0 - 0.0 - - - - - - -
06/05:00am 16.3 W 11 15 1015.8 - 0.0 - - - - - - -
06/04:30am 15.7 W 9 10 1015.5 - 0.0 - - - - - - -
06/04:00am 16.4 W 12 15 1015.3 - 0.0 - - - - - - -
06/03:30am 15.2 W 12 15 1015.1 - 0.0 - - - - - - -
06/03:00am 13.9 W 7 9 1015.2 - 0.0 - - - - - - -
06/02:30am 14.1 W 9 10 1015.2 - 0.0 - - - - - - -
06/02:00am 13.4 W 9 10 1015.2 - 0.0 - - - - - - -
06/01:30am 13.4 W 5 6 1015.2 - 0.0 - - - - - - -
06/01:00am 13.6 WNW 5 6 1015.3 - 0.0 - - - - - - -
06/12:30am 13.2 WNW 5 6 1015.4 - 0.0 - - - - - - -
06/12:00am 13.7 WNW 5 6 1015.6 - 0.0 - - - - - - -
 
Date/Time
EST
Temp

°C
Wind Pressure Rain
since 9am
mm
Weather Cloud Vis
km
Sea
Height
m
Swell
Dir
 
Speed
knots
Gust
knots
hPa Trend Height
m
Period
s
Dir
05/11:30pm 13.3 WNW 4 6 1015.6 - 0.0 - - - - - - -
05/11:00pm 14.2 NW 3 8 1015.7 - 0.0 - - - - - - -
05/10:30pm 14.6 NNW 5 6 1015.8 - 0.0 - - - - - - -
05/10:00pm 14.8 WNW 3 7 1016.1 - 0.0 - - - - - - -
05/09:30pm 14.7 NNW 5 8 1016.0 - 0.0 - - - - - - -
05/09:00pm 15.0 NNW 6 8 1016.1 - 0.0 - - - - - - -
05/08:30pm 15.2 N 6 8 1016.1 - 0.0 - - - - - - -
05/08:00pm 15.8 N 8 13 1016.1 - 0.0 - - - - - - -
05/07:30pm 16.7 N 17 19 1015.8 - 0.0 - - - - - - -
05/07:00pm 16.6 N 15 16 1015.7 - 0.0 - - - - - - -
05/06:30pm 16.6 N 13 14 1015.8 - 0.0 - - - - - - -
05/06:00pm 16.7 NNE 11 13 1015.5 - 0.0 - - - - - - -
05/05:30pm 16.7 NNE 11 13 1015.3 - 0.0 - - - - - - -
05/05:00pm 16.7 NNE 10 12 1015.3 - 0.0 - - - - - - -
05/04:30pm 16.9 NNE 10 12 1015.3 - 0.0 - - - - - - -
05/04:00pm 17.4 NNE 9 10 1015.6 - 0.0 - - - - - - -
05/03:30pm 18.5 NE 8 10 1015.8 - 0.0 - - - - - - -
05/03:00pm 19.1 NE 8 10 1015.8 - 0.0 - - - - - - -
05/02:30pm 19.7 NE 6 8 1016.0 - 0.0 - - - - - - -
05/02:00pm 20.1 NE 5 7 1016.0 - 0.0 - - - - - - -
05/01:30pm 20.4 NE 3 5 1016.3 - 0.0 - - - - - - -
05/01:00pm 20.3 NE 3 4 1016.6 - 0.0 - - - - - - -
05/12:30pm 20.2 SE 1 2 1017.1 - 0.0 - - - - - - -
05/12:00pm 19.6 S 2 3 1017.5 - 0.0 - - - - - - -
05/11:30am 17.8 WSW 3 3 1018.0 - 0.0 - - - - - - -
05/11:00am 17.2 W 5 6 1018.6 - 0.0 - - - - - - -
05/10:30am 16.4 W 6 7 1019.0 - 0.0 - - - - - - -
05/10:00am 15.8 WNW 7 8 1019.3 - 0.0 - - - - - - -
05/09:30am 14.8 WNW 8 11 1019.6 - 0.0 - - - - - - -
05/09:00am 13.9 W 12 14 1019.7 - 0.0 - - - - - - -
05/08:30am 13.3 W 11 12 1019.5 - 0.0 - - - - - - -
05/08:00am 13.0 W 11 13 1019.4 - 0.0 - - - - - - -
05/07:30am 12.4 W 11 13 1019.2 - 0.0 - - - - - - -
05/07:00am 12.7 W 10 12 1018.9 - 0.0 - - - - - - -
05/06:30am 12.9 W 10 13 1018.5 - 0.0 - - - - - - -
05/06:00am 13.2 WSW 10 13 1018.5 - 0.0 - - - - - - -
05/05:30am 13.2 W 10 13 1018.0 - 0.0 - - - - - - -
05/05:00am 12.7 W 11 13 1018.0 - 0.0 - - - - - - -
05/04:30am 12.8 W 12 13 1017.7 - 0.0 - - - - - - -
05/04:00am 13.0 W 12 13 1017.6 - 0.0 - - - - - - -
05/03:30am 13.2 W 9 11 1017.4 - 0.0 - - - - - - -
05/03:00am 13.1 W 9 11 1017.5 - 0.0 - - - - - - -
05/02:30am 13.4 W 9 11 1017.6 - 0.0 - - - - - - -
05/02:00am 13.5 W 8 9 1017.7 - 0.0 - - - - - - -
05/01:30am 13.6 W 7 8 1017.8 - 0.0 - - - - - - -
05/01:00am 13.7 W 6 8 1017.8 - 0.0 - - - - - - -
05/12:30am 13.8 W 7 8 1018.0 - 0.0 - - - - - - -
05/12:00am 14.0 W 6 8 1018.2 - 0.0 - - - - - - -
 
Date/Time
EST
Temp

°C
Wind Pressure Rain
since 9am
mm
Weather Cloud Vis
km
Sea
Height
m
Swell
Dir
 
Speed
knots
Gust
knots
hPa Trend Height
m
Period
s
Dir
04/11:30pm 14.2 W 4 5 1018.3 - 0.0 - - - - - - -
04/11:00pm 14.5 W 4 5 1018.3 - 0.0 - - - - - - -
04/10:30pm 14.4 WNW 4 5 1018.6 - 0.0 - - - - - - -
04/10:00pm 14.5 W 3 4 1018.7 - 0.0 - - - - - - -
04/09:30pm 14.9 W 6 8 1018.8 - 0.0 - - - - - - -
04/09:00pm 15.9 NE 6 7 1018.4 - 0.0 - - - - - - -
04/08:30pm 16.0 ENE 4 5 1018.2 - 0.0 - - - - - - -
04/08:00pm 15.7 ENE 3 5 1018.1 - 0.0 - - - - - - -
04/07:30pm 15.4 E 4 5 1017.8 - 0.0 - - - - - - -
04/07:00pm 15.7 ESE 3 5 1017.8 - 0.0 - - - - - - -
04/06:30pm 15.8 SE 5 7 1017.6 - 0.0 - - - - - - -
04/06:00pm 15.8 SSE 7 8 1017.0 - 0.0 - - - - - - -
04/05:30pm 15.7 SSE 6 9 1016.6 - 0.0 - - - - - - -
04/05:00pm 15.7 SSE 8 10 1016.3 - 0.0 - - - - - - -
04/04:30pm 15.9 SSE 12 13 1015.9 - 0.0 - - - - - - -
04/04:00pm 16.2 S 13 14 1015.6 - 0.0 - - - - - - -
04/03:30pm 16.8 S 14 15 1015.6 - 0.0 - - - - - - -
04/03:00pm 17.7 SSE 12 14 1015.1 - 0.0 - - - - - - -
04/02:30pm 18.3 SSE 12 15 1014.9 - 0.0 - - - - - - -
04/02:00pm 18.3 SSE 12 14 1014.8 - 0.0 - - - - - - -
04/01:30pm 19.4 SSE 8 10 1014.7 - 0.0 - - - - - - -
04/01:00pm 19.5 SSE 5 7 1014.7 - 0.0 - - - - - - -
04/12:30pm 17.6 SSW 7 9 1015.1 - 0.0 - - - - - - -
04/12:00pm 17.2 SSW 8 10 1015.2 - 0.0 - - - - - - -
04/11:30am 15.9 S 10 12 1015.2 - 0.0 - - - - - - -
04/11:00am 16.2 SSW 12 15 1015.1 - 0.0 - - - - - - -
04/10:30am 15.5 SW 12 15 1015.1 - 0.0 - - - - - - -
04/10:00am 15.2 SW 14 18 1015.0 - 0.0 - - - - - - -
04/09:30am 14.7 SW 16 20 1014.9 - 0.0 - - - - - - -
04/09:00am 14.3 SW 15 19 1014.8 - 0.0 - - - - - - -
04/08:30am 14.0 SW 14 20 1014.4 - 0.0 - - - - - - -
04/08:00am 13.8 WSW 11 13 1013.9 - 0.0 - - - - - - -
04/07:30am 13.9 SW 15 17 1013.4 - 0.0 - - - - - - -
04/07:00am 13.7 WSW 12 18 1013.0 - 0.0 - - - - - - -

Other Formats:

Comma delimited format used in spreadsheet applications
http://www.bom.gov.au/fwo/IDN60701/IDN60701.94934.axf

JavaScript Object Notation format (JSON) in row-major order
http://www.bom.gov.au/fwo/IDN60701/IDN60701.94934.json